Flight Track Log - Related Links

Times and Time Zones

All times are in EDT time to prevent confusion due to time zone crossing. See the AAY854 flight status page for this flight to view local times or setup timezone preferences in your user account.

Time Position Orientation Groundspeed Altitude Reporting Facility
EDT Latitude Longitude Course Direction KTS MPH feet Rate Location/Type
Mon 04:59:09 PM 27.9333 -82.6833 16° North 136 157 1,000  Level Tampa TRACON
Mon 05:00:09 PM 27.9833 -82.6667 16° North 225 259 2,300 1,500 Climbing Tampa TRACON
Mon 05:01:09 PM 28.0333 -82.6500 16° North 274 315 4,000 900 Climbing Tampa TRACON
Mon 05:02:09 PM 28.1167 -82.6500 360° North 274 315 4,100 1,322 Climbing Tampa TRACON
Mon 05:04:06 PM 28.2622 -82.6122 13° North 273 314 7,900 2,203 Climbing Jacksonville Center
Mon 05:05:06 PM 28.3436 -82.6025 North 279 321 10,600 1,800 Climbing Jacksonville Center
Mon 05:06:06 PM 28.4356 -82.5881 North 301 346 11,500 1,250 Climbing Jacksonville Center
Mon 05:07:06 PM 28.5419 -82.5758 North 344 396 13,100 2,150 Climbing Jacksonville Center
Mon 05:08:06 PM 28.6544 -82.5567 North 383 441 15,800 2,400 Climbing Jacksonville Center
Mon 05:09:06 PM 28.7672 -82.5492 North 396 456 17,900 2,000 Climbing Jacksonville Center
Mon 05:10:06 PM 28.8842 -82.5725 350° North 408 470 19,800 1,750 Climbing Jacksonville Center
Mon 05:11:06 PM 28.9989 -82.6006 348° North 413 475 21,400 1,500 Climbing Jacksonville Center
Mon 05:12:06 PM 29.1222 -82.6264 350° North 426 490 22,800 1,700 Climbing Jacksonville Center
Mon 05:13:06 PM 29.2414 -82.6664 344° North 437 503 24,800 1,650 Climbing Jacksonville Center
Mon 05:14:06 PM 29.3353 -82.7569 320° Northwest 431 496 26,100 1,400 Climbing Jacksonville Center
Mon 05:15:06 PM 29.4231 -82.8544 316° Northwest 431 496 27,600 1,400 Climbing Jacksonville Center
Mon 05:16:06 PM 29.5044 -82.9475 315° West 445 512 28,900 1,150 Climbing Jacksonville Center
Mon 05:17:06 PM 29.5942 -83.0431 317° Northwest 450 518 29,900 500 Climbing Jacksonville Center
Mon 05:18:06 PM 29.7028 -83.1006 335° Northwest 437 503 29,900  Level Jacksonville Center
Mon 05:19:06 PM 29.8153 -83.1511 339° North 430 495 29,900  Level Jacksonville Center
Mon 05:20:06 PM 29.9236 -83.2017 338° Northwest 430 495 29,900  Level Jacksonville Center
Mon 05:21:06 PM 30.0406 -83.2550 338° Northwest 430 495 29,900 50 Level Jacksonville Center
Mon 05:22:06 PM 30.1531 -83.3058 339° North 430 495 30,000  Climbing Jacksonville Center
Mon 05:23:06 PM 30.2656 -83.3592 338° Northwest 430 495 29,900 -50 Descending Jacksonville Center
Mon 05:24:06 PM 30.3761 -83.4103 338° Northwest 430 495 29,900 50 Level Jacksonville Center
Mon 05:25:06 PM 30.4886 -83.4639 338° Northwest 430 495 30,000 50 Climbing Jacksonville Center
Mon 05:26:06 PM 30.6011 -83.5178 338° Northwest 430 495 30,000  Level Jacksonville Center
Mon 05:27:06 PM 30.7117 -83.5692 338° Northwest 430 495 30,000  Level Jacksonville Center
Mon 05:28:06 PM 30.8219 -83.6208 338° Northwest 430 495 30,000  Level Jacksonville Center
Mon 05:29:06 PM 30.9322 -83.6747 337° Northwest 430 495 30,000  Level Jacksonville Center
Mon 05:30:06 PM 31.0467 -83.7292 338° Northwest 430 495 30,000  Level Jacksonville Center
Mon 05:31:06 PM 31.1592 -83.7836 338° Northwest 430 495 30,000  Level Jacksonville Center
Mon 05:33:28 PM 31.4294 -83.9147 338° Northwest 431 496 30,000  Level Atlanta Center
Mon 05:34:28 PM 31.5419 -83.9633 340° North 431 496 30,000  Level Atlanta Center
Mon 05:35:28 PM 31.6611 -83.9900 349° North 431 496 30,000  Level Atlanta Center
Mon 05:36:28 PM 31.7800 -84.0169 349° North 426 490 30,000  Level Atlanta Center
Mon 05:37:28 PM 31.8761 -84.0389 349° North 432 497 30,000  Level Atlanta Center
Mon 05:38:28 PM 32.0033 -84.0658 350° North 427 491 30,000  Level Atlanta Center
Mon 05:39:28 PM 32.1203 -84.0903 350° North 427 491 30,000  Level Atlanta Center
Mon 05:40:28 PM 32.2369 -84.1175 349° North 427 491 30,000 400 Level Atlanta Center
Mon 05:41:28 PM 32.3561 -84.1444 349° North 427 491 30,800 950 Climbing Atlanta Center
Mon 05:42:28 PM 32.4728 -84.1719 349° North 427 491 31,900 900 Climbing Atlanta Center
Mon 05:43:28 PM 32.5878 -84.1992 349° North 427 491 32,600 800 Climbing Atlanta Center
Mon 05:44:28 PM 32.7067 -84.2264 349° North 427 491 33,500 700 Climbing Atlanta Center
Mon 05:45:28 PM 32.8319 -84.2539 350° North 422 486 34,000 250 Climbing Atlanta Center
Mon 05:46:28 PM 32.9444 -84.2789 349° North 417 480 34,000  Level Atlanta Center
Mon 05:47:28 PM 33.0592 -84.3089 348° North 417 480 34,000  Level Atlanta Center
Mon 05:48:28 PM 33.1761 -84.3342 350° North 417 480 34,000  Level Atlanta Center
Mon 05:49:28 PM 33.2803 -84.3569 350° North 417 480 34,000  Level Atlanta Center
Mon 05:50:28 PM 33.3972 -84.3847 349° North 417 480 34,000  Level Atlanta Center
Mon 05:51:28 PM 33.5097 -84.4100 349° North 424 488 34,000  Level Atlanta Center
Mon 05:52:28 PM 33.6369 -84.4406 349° North 418 481 34,000  Level Atlanta Center
Mon 05:53:28 PM 33.7497 -84.4661 349° North 418 481 34,000  Level Atlanta Center
Mon 05:54:28 PM 33.8686 -84.4942 349° North 417 480 34,000  Level Atlanta Center
Mon 05:55:28 PM 33.9792 -84.5122 352° North 409 471 34,000  Level Atlanta Center
Mon 05:56:28 PM 34.0772 -84.5253 354° North 414 476 34,000  Level Atlanta Center
Mon 05:57:28 PM 34.2106 -84.5361 356° North 434 499 34,000  Level Atlanta Center
Mon 05:58:28 PM 34.3256 -84.5494 355° North 429 494 34,000  Level Atlanta Center
Mon 05:59:28 PM 34.4422 -84.5603 356° North 418 481 34,000  Level Atlanta Center
Mon 06:00:28 PM 34.5569 -84.5708 356° North 418 481 34,000  Level Atlanta Center
Mon 06:01:28 PM 34.6822 -84.5894 353° North 418 481 34,000  Level Atlanta Center
Mon 06:02:28 PM 34.7947 -84.6003 355° North 408 470 34,000  Level Atlanta Center
Mon 06:03:28 PM 34.9117 -84.6139 355° North 408 470 34,000  Level Atlanta Center
Mon 06:04:28 PM 35.0242 -84.6247 355° North 408 470 34,000  Level Atlanta Center
Mon 06:05:28 PM 35.1389 -84.6381 355° North 408 470 34,000  Level Atlanta Center
Mon 06:06:28 PM 35.2536 -84.6517 354° North 408 470 34,000  Level Atlanta Center
Mon 06:07:28 PM 35.3661 -84.6628 355° North 408 470 34,000  Level Atlanta Center
Mon 06:08:28 PM 35.4789 -84.6764 354° North 408 470 34,000  Level Atlanta Center
Mon 06:09:28 PM 35.5936 -84.6875 355° North 408 470 34,000  Level Atlanta Center
Mon 06:10:28 PM 35.7061 -84.7011 354° North 408 470 34,000  Level Atlanta Center
Mon 06:11:28 PM 35.8208 -84.7097 357° North 408 470 34,000  Level Atlanta Center
Mon 06:13:33 PM 36.0469 -84.7367 354° North 411 473 34,000  Level Indianapolis Center
Mon 06:14:35 PM 36.1597 -84.7497 355° North 411 473 34,000  Level Indianapolis Center
Mon 06:15:37 PM 36.2956 -84.7664 354° North 411 473 34,000  Level Indianapolis Center
Mon 06:16:39 PM 36.4094 -84.7792 355° North 410 472 34,000  Level Indianapolis Center
Mon 06:17:41 PM 36.5228 -84.7922 355° North 411 473 34,000  Level Indianapolis Center
Mon 06:18:43 PM 36.6356 -84.8047 355° North 410 472 34,000  Level Indianapolis Center
Mon 06:19:45 PM 36.7483 -84.8186 354° North 410 472 34,000  Level Indianapolis Center
Mon 06:20:47 PM 36.8617 -84.8325 354° North 410 472 34,000  Level Indianapolis Center
Mon 06:21:50 PM 36.9981 -84.8486 355° North 409 471 34,000  Level Indianapolis Center
Mon 06:22:52 PM 37.1125 -84.8606 355° North 409 471 34,000  Level Indianapolis Center
Mon 06:23:54 PM 37.2247 -84.8742 354° North 409 471 34,000  Level Indianapolis Center
Mon 06:24:56 PM 37.3383 -84.8883 354° North 409 471 34,000  Level Indianapolis Center
Mon 06:25:58 PM 37.4478 -84.9164 348° North 406 467 34,000  Level Indianapolis Center
Mon 06:27:00 PM 37.5569 -84.9500 346° North 405 466 34,000  Level Indianapolis Center
Mon 06:28:02 PM 37.6831 -84.9897 346° North 402 463 34,000  Level Indianapolis Center
Mon 06:29:04 PM 37.7908 -85.0228 346° North 401 461 34,000  Level Indianapolis Center
Mon 06:30:06 PM 37.8992 -85.0572 346° North 400 460 34,000  Level Indianapolis Center
Mon 06:31:08 PM 38.0069 -85.0908 346° North 400 460 34,000  Level Indianapolis Center
Mon 06:32:10 PM 38.1142 -85.1244 346° North 400 460 34,000  Level Indianapolis Center
Mon 06:33:13 PM 38.2394 -85.1633 346° North 399 459 34,000  Level Indianapolis Center
Mon 06:34:15 PM 38.3458 -85.1975 346° North 396 456 34,000  Level Indianapolis Center
Mon 06:35:17 PM 38.4511 -85.2322 346° North 396 456 34,000  Level Indianapolis Center
Mon 06:36:19 PM 38.5589 -85.2656 346° North 396 456 34,000  Level Indianapolis Center
Mon 06:37:21 PM 38.6656 -85.2986 346° North 396 456 34,000 -290 Level Indianapolis Center
Mon 06:38:23 PM 38.7728 -85.3333 346° North 396 456 33,400 -871 Descending Indianapolis Center
Mon 06:39:25 PM 38.9017 -85.3764 345° North 396 456 32,200 -1,065 Descending Indianapolis Center
Mon 06:40:27 PM 39.0086 -85.4108 346° North 397 457 31,200 -968 Descending Indianapolis Center
Mon 06:41:29 PM 39.1178 -85.4447 346° North 397 457 30,200 -919 Descending Indianapolis Center
Mon 06:42:31 PM 39.2272 -85.4811 346° North 402 463 29,300 -919 Descending Indianapolis Center
Mon 06:43:33 PM 39.3372 -85.5178 346° North 404 465 28,300 -629 Descending Indianapolis Center
Mon 06:44:35 PM 39.4717 -85.5611 346° North 413 475 28,000 -528 Descending Indianapolis Center
Mon 06:45:38 PM 39.5836 -85.5981 346° North 414 476 27,200 -864 Descending Indianapolis Center
Mon 06:46:40 PM 39.6928 -85.6319 347° North 412 474 26,200 -968 Descending Indianapolis Center
Mon 06:47:42 PM 39.8000 -85.6675 346° North 406 467 25,200 -968 Descending Indianapolis Center
Mon 06:48:44 PM 39.9058 -85.7022 346° North 402 463 24,200 -1,065 Descending Indianapolis Center
Mon 06:49:46 PM 40.0317 -85.7439 346° North 396 456 23,000 -1,065 Descending Indianapolis Center
Mon 06:50:48 PM 40.1364 -85.7772 346° North 394 453 22,000 -968 Descending Indianapolis Center
Mon 06:51:50 PM 40.2381 -85.8125 345° North 387 445 21,000 -919 Descending Indianapolis Center
Mon 06:52:52 PM 40.3397 -85.8461 346° North 382 440 20,100 -938 Descending Indianapolis Center
Mon 06:53:26 PM 40.3989 -85.8639 347° North 375 432 19,500 -1,000 Descending Chicago Center
Mon 06:54:28 PM 40.4972 -85.8961 346° North 368 423 18,500 -1,161 Descending Chicago Center
Mon 06:55:30 PM 40.5944 -85.9306 345° North 366 421 17,100 -1,403 Descending Chicago Center
Mon 06:56:32 PM 40.7017 -85.9675 345° North 365 420 15,600 -1,355 Descending Chicago Center
Mon 06:57:34 PM 40.7986 -86.0000 346° North 362 417 14,300 -1,113 Descending Chicago Center
Mon 06:58:36 PM 40.8939 -86.0322 346° North 356 410 13,300 -968 Descending Chicago Center
Mon 06:59:38 PM 40.9881 -86.0661 345° North 354 407 12,300 -1,065 Descending Chicago Center
Mon 07:00:40 PM 41.0992 -86.1033 346° North 347 399 11,100 -629 Descending Chicago Center
Mon 07:01:42 PM 41.1864 -86.1372 344° North 329 379 11,000 -532 Descending Chicago Center
Mon 07:02:44 PM 41.2575 -86.1900 331° Northwest 292 336 10,000 -823 Descending Chicago Center
Mon 07:03:46 PM 41.3208 -86.2361 331° Northwest 265 305 9,300 -919 Descending Chicago Center
Mon 07:04:48 PM 41.3844 -86.2819 332° Northwest 261 300 8,100 -1,258 Descending Chicago Center
Mon 07:05:50 PM 41.4514 -86.3183 338° Northwest 264 304 6,700 -1,355 Descending Chicago Center
Mon 07:06:52 PM 41.5322 -86.3464 345° North 252 290 5,300 -1,200 Descending Chicago Center
Mon 07:07:55 PM 41.6006 -86.3711 345° North 252 290 4,200 -1,104 Descending Chicago Center
Mon 07:08:57 PM 41.6614 -86.3953 343° North 247 284 3,000 -1,161 Descending Chicago Center
Mon 07:09:59 PM 41.6986 -86.3833 13° North 198 228 1,800 -774 Descending Chicago Center
Mon 07:11:01 PM 41.7108 -86.3344 71° East 180 207 1,400 -387 Descending Chicago Center

Login

Don't have an account? Register now (free) for customized features, flight alerts, and more!